sensor_id;sensor_type;location;lat;lon;timestamp;pressure;altitude;pressure_sealevel;temperature;humidity
79131;BME280;72396;45.194;9.142;2023-09-30T00:00:25;101269.59;;;23.81;51.78
79131;BME280;72396;45.194;9.142;2023-09-30T00:02:50;101281.34;;;23.80;51.37
79131;BME280;72396;45.194;9.142;2023-09-30T00:05:16;101276.06;;;23.79;51.66
79131;BME280;72396;45.194;9.142;2023-09-30T00:07:45;101276.91;;;23.79;51.47
79131;BME280;72396;45.194;9.142;2023-09-30T00:10:10;101280.59;;;23.78;51.88
79131;BME280;72396;45.194;9.142;2023-09-30T00:12:35;101280.00;;;23.75;51.86
79131;BME280;72396;45.194;9.142;2023-09-30T00:15:00;101294.06;;;23.78;51.64
79131;BME280;72396;45.194;9.142;2023-09-30T00:17:26;101298.72;;;23.76;51.95
79131;BME280;72396;45.194;9.142;2023-09-30T00:19:51;101301.41;;;23.76;51.87
79131;BME280;72396;45.194;9.142;2023-09-30T00:22:17;101298.72;;;23.76;51.67
79131;BME280;72396;45.194;9.142;2023-09-30T00:24:42;101307.91;;;23.74;51.57
79131;BME280;72396;45.194;9.142;2023-09-30T00:27:07;101305.94;;;23.76;51.58
79131;BME280;72396;45.194;9.142;2023-09-30T00:29:33;101303.84;;;23.79;51.80
79131;BME280;72396;45.194;9.142;2023-09-30T00:31:59;101297.00;;;23.75;51.64
79131;BME280;72396;45.194;9.142;2023-09-30T00:34:24;101298.47;;;23.79;51.77
79131;BME280;72396;45.194;9.142;2023-09-30T00:36:49;101290.38;;;23.79;51.67
79131;BME280;72396;45.194;9.142;2023-09-30T00:39:14;101291.25;;;23.80;51.58
79131;BME280;72396;45.194;9.142;2023-09-30T00:41:40;101296.75;;;23.78;51.34
79131;BME280;72396;45.194;9.142;2023-09-30T00:44:05;101293.06;;;23.79;51.55
79131;BME280;72396;45.194;9.142;2023-09-30T00:46:32;101286.59;;;23.82;51.31
79131;BME280;72396;45.194;9.142;2023-09-30T00:48:58;101282.44;;;23.78;51.32
79131;BME280;72396;45.194;9.142;2023-09-30T00:51:25;101279.59;;;23.79;51.28
79131;BME280;72396;45.194;9.142;2023-09-30T00:53:52;101269.97;;;23.77;51.34
79131;BME280;72396;45.194;9.142;2023-09-30T00:56:19;101273.38;;;23.79;51.21
79131;BME280;72396;45.194;9.142;2023-09-30T00:58:46;101268.97;;;23.78;51.33
79131;BME280;72396;45.194;9.142;2023-09-30T01:01:12;101280.59;;;23.78;51.31
79131;BME280;72396;45.194;9.142;2023-09-30T01:03:38;101273.38;;;23.79;51.19
79131;BME280;72396;45.194;9.142;2023-09-30T01:06:03;101277.91;;;23.78;51.64
79131;BME280;72396;45.194;9.142;2023-09-30T01:08:29;101274.97;;;23.81;51.44
79131;BME280;72396;45.194;9.142;2023-09-30T01:10:55;101272.50;;;23.78;51.39
79131;BME280;72396;45.194;9.142;2023-09-30T01:13:21;101285.88;;;23.80;51.41
79131;BME280;72396;45.194;9.142;2023-09-30T01:15:47;101279.59;;;23.79;51.26
79131;BME280;72396;45.194;9.142;2023-09-30T01:18:12;101275.19;;;23.78;51.42
79131;BME280;72396;45.194;9.142;2023-09-30T01:20:38;101272.41;;;23.80;51.65
79131;BME280;72396;45.194;9.142;2023-09-30T01:23:03;101275.09;;;23.80;51.51
79131;BME280;72396;45.194;9.142;2023-09-30T01:25:29;101282.44;;;23.78;51.52
79131;BME280;72396;45.194;9.142;2023-09-30T01:27:54;101271.78;;;23.76;51.13
79131;BME280;72396;45.194;9.142;2023-09-30T01:30:20;101281.72;;;23.76;51.53
79131;BME280;72396;45.194;9.142;2023-09-30T01:32:47;101272.75;;;23.75;51.17
79131;BME280;72396;45.194;9.142;2023-09-30T01:35:13;101284.03;;;23.80;51.47
79131;BME280;72396;45.194;9.142;2023-09-30T01:37:39;101272.41;;;23.80;51.60
79131;BME280;72396;45.194;9.142;2023-09-30T01:40:05;101267.13;;;23.78;51.63
79131;BME280;72396;45.194;9.142;2023-09-30T01:42:36;101275.97;;;23.80;51.35
79131;BME280;72396;45.194;9.142;2023-09-30T01:45:01;101266.16;;;23.79;51.64
79131;BME280;72396;45.194;9.142;2023-09-30T01:47:27;101260.75;;;23.79;51.15
79131;BME280;72396;45.194;9.142;2023-09-30T01:49:52;101266.28;;;23.78;51.57
79131;BME280;72396;45.194;9.142;2023-09-30T01:52:18;101260.75;;;23.79;51.65
79131;BME280;72396;45.194;9.142;2023-09-30T01:54:43;101260.75;;;23.79;51.34
79131;BME280;72396;45.194;9.142;2023-09-30T01:57:08;101259.31;;;23.75;51.52
79131;BME280;72396;45.194;9.142;2023-09-30T01:59:34;101267.25;;;23.77;51.34
79131;BME280;72396;45.194;9.142;2023-09-30T02:02:00;101265.31;;;23.79;51.69
79131;BME280;72396;45.194;9.142;2023-09-30T02:04:25;101267.88;;;23.80;51.61
79131;BME280;72396;45.194;9.142;2023-09-30T02:06:50;101257.47;;;23.76;51.53
79131;BME280;72396;45.194;9.142;2023-09-30T02:09:16;101257.59;;;23.74;51.22
79131;BME280;72396;45.194;9.142;2023-09-30T02:11:41;101258.31;;;23.76;51.38
79131;BME280;72396;45.194;9.142;2023-09-30T02:14:07;101249.25;;;23.77;51.55
79131;BME280;72396;45.194;9.142;2023-09-30T02:16:32;101244.84;;;23.76;51.14
79131;BME280;72396;45.194;9.142;2023-09-30T02:18:58;101250.97;;;23.78;51.50
79131;BME280;72396;45.194;9.142;2023-09-30T02:21:24;101250.25;;;23.76;51.64
79131;BME280;72396;45.194;9.142;2023-09-30T02:23:49;101249.25;;;23.77;51.44
79131;BME280;72396;45.194;9.142;2023-09-30T02:26:15;101250.13;;;23.78;51.68
79131;BME280;72396;45.194;9.142;2023-09-30T02:28:40;101246.56;;;23.77;51.49
79131;BME280;72396;45.194;9.142;2023-09-30T02:31:05;101253.91;;;23.75;51.60
79131;BME280;72396;45.194;9.142;2023-09-30T02:33:33;101262.72;;;23.77;51.52
79131;BME280;72396;45.194;9.142;2023-09-30T02:36:01;101246.81;;;23.74;51.59
79131;BME280;72396;45.194;9.142;2023-09-30T02:38:27;101247.56;;;23.76;51.25
79131;BME280;72396;45.194;9.142;2023-09-30T02:40:54;101244.84;;;23.76;51.21
79131;BME280;72396;45.194;9.142;2023-09-30T02:43:19;101254.78;;;23.76;51.25
79131;BME280;72396;45.194;9.142;2023-09-30T02:45:45;101247.81;;;23.73;51.36
79131;BME280;72396;45.194;9.142;2023-09-30T02:48:11;101249.41;;;23.76;51.57
79131;BME280;72396;45.194;9.142;2023-09-30T02:50:36;101261.00;;;23.76;51.29
79131;BME280;72396;45.194;9.142;2023-09-30T02:53:02;101263.84;;;23.75;51.38
79131;BME280;72396;45.194;9.142;2023-09-30T02:55:27;101262.13;;;23.74;51.42
79131;BME280;72396;45.194;9.142;2023-09-30T02:57:52;101257.72;;;23.73;51.60
79131;BME280;72396;45.194;9.142;2023-09-30T03:00:18;101263.84;;;23.75;51.59
79131;BME280;72396;45.194;9.142;2023-09-30T03:02:51;101262.00;;;23.75;51.20
79131;BME280;72396;45.194;9.142;2023-09-30T03:05:17;101260.28;;;23.74;51.31
79131;BME280;72396;45.194;9.142;2023-09-30T03:07:43;101256.75;;;23.74;51.28
79131;BME280;72396;45.194;9.142;2023-09-30T03:10:09;101268.34;;;23.74;51.54
79131;BME280;72396;45.194;9.142;2023-09-30T03:12:35;101260.28;;;23.74;51.24
79131;BME280;72396;45.194;9.142;2023-09-30T03:15:00;101247.06;;;23.71;51.27
79131;BME280;72396;45.194;9.142;2023-09-30T03:17:30;101251.38;;;23.74;51.65
79131;BME280;72396;45.194;9.142;2023-09-30T03:19:57;101250.50;;;23.73;51.33
79131;BME280;72396;45.194;9.142;2023-09-30T03:22:23;101251.47;;;23.72;51.28
79131;BME280;72396;45.194;9.142;2023-09-30T03:24:48;101246.19;;;23.70;51.55
79131;BME280;72396;45.194;9.142;2023-09-30T03:27:14;101252.22;;;23.74;51.36
79131;BME280;72396;45.194;9.142;2023-09-30T03:29:40;101255.03;;;23.73;51.50
79131;BME280;72396;45.194;9.142;2023-09-30T03:32:06;101250.50;;;23.73;51.27
79131;BME280;72396;45.194;9.142;2023-09-30T03:34:32;101248.91;;;23.70;51.63
79131;BME280;72396;45.194;9.142;2023-09-30T03:36:58;101253.34;;;23.72;51.18
79131;BME280;72396;45.194;9.142;2023-09-30T03:39:25;101257.72;;;23.73;51.21
79131;BME280;72396;45.194;9.142;2023-09-30T03:41:55;101253.44;;;23.70;51.24
79131;BME280;72396;45.194;9.142;2023-09-30T03:44:22;101245.25;;;23.72;51.42
79131;BME280;72396;45.194;9.142;2023-09-30T03:46:48;101250.50;;;23.73;51.45
79131;BME280;72396;45.194;9.142;2023-09-30T03:49:14;101251.47;;;23.72;51.02
79131;BME280;72396;45.194;9.142;2023-09-30T03:51:40;101246.19;;;23.70;51.32
79131;BME280;72396;45.194;9.142;2023-09-30T03:54:06;101246.09;;;23.72;51.07
79131;BME280;72396;45.194;9.142;2023-09-30T03:56:31;101247.06;;;23.71;50.99
79131;BME280;72396;45.194;9.142;2023-09-30T03:58:56;101241.81;;;23.69;51.07
79131;BME280;72396;45.194;9.142;2023-09-30T04:01:22;101246.19;;;23.70;51.24
79131;BME280;72396;45.194;9.142;2023-09-30T04:03:48;101244.50;;;23.69;51.21
79131;BME280;72396;45.194;9.142;2023-09-30T04:06:14;101249.66;;;23.73;51.56
79131;BME280;72396;45.194;9.142;2023-09-30T04:08:40;101246.09;;;23.72;51.34
79131;BME280;72396;45.194;9.142;2023-09-30T04:11:05;101249.75;;;23.71;50.99
79131;BME280;72396;45.194;9.142;2023-09-30T04:13:31;101247.06;;;23.71;51.49
79131;BME280;72396;45.194;9.142;2023-09-30T04:15:58;101249.03;;;23.69;51.13
79131;BME280;72396;45.194;9.142;2023-09-30T04:18:24;101254.16;;;23.72;51.18
79131;BME280;72396;45.194;9.142;2023-09-30T04:20:51;101257.13;;;23.69;51.12
79131;BME280;72396;45.194;9.142;2023-09-30T04:23:17;101261.53;;;23.70;51.15
79131;BME280;72396;45.194;9.142;2023-09-30T04:25:45;101270.56;;;23.69;51.46
79131;BME280;72396;45.194;9.142;2023-09-30T04:28:15;101264.47;;;23.67;51.26
79131;BME280;72396;45.194;9.142;2023-09-30T04:30:41;101265.91;;;23.71;51.10
79131;BME280;72396;45.194;9.142;2023-09-30T04:33:06;101270.56;;;23.69;51.19
79131;BME280;72396;45.194;9.142;2023-09-30T04:35:33;101266.03;;;23.69;51.24
79131;BME280;72396;45.194;9.142;2023-09-30T04:38:00;101266.03;;;23.69;51.16
79131;BME280;72396;45.194;9.142;2023-09-30T04:40:27;101254.41;;;23.69;51.16
79131;BME280;72396;45.194;9.142;2023-09-30T04:42:52;101251.72;;;23.69;51.06
79131;BME280;72396;45.194;9.142;2023-09-30T04:45:20;101253.56;;;23.68;51.07
79131;BME280;72396;45.194;9.142;2023-09-30T04:47:46;101258.81;;;23.70;51.56
79131;BME280;72396;45.194;9.142;2023-09-30T04:50:13;101260.66;;;23.69;51.37
79131;BME280;72396;45.194;9.142;2023-09-30T04:52:42;101262.50;;;23.69;51.26
79131;BME280;72396;45.194;9.142;2023-09-30T04:55:07;101266.91;;;23.70;51.29
79131;BME280;72396;45.194;9.142;2023-09-30T04:57:33;101258.09;;;23.68;51.40
79131;BME280;72396;45.194;9.142;2023-09-30T04:59:59;101266.03;;;23.69;51.49
79131;BME280;72396;45.194;9.142;2023-09-30T05:02:24;101266.19;;;23.68;51.36
79131;BME280;72396;45.194;9.142;2023-09-30T05:04:51;101268.88;;;23.68;51.14
79131;BME280;72396;45.194;9.142;2023-09-30T05:07:17;101271.41;;;23.69;51.38
79131;BME280;72396;45.194;9.142;2023-09-30T05:09:42;101268.88;;;23.68;51.13
79131;BME280;72396;45.194;9.142;2023-09-30T05:12:08;101273.28;;;23.69;50.98
79131;BME280;72396;45.194;9.142;2023-09-30T05:14:35;101271.56;;;23.68;50.99
79131;BME280;72396;45.194;9.142;2023-09-30T05:17:02;101280.47;;;23.68;51.27
79131;BME280;72396;45.194;9.142;2023-09-30T05:19:27;101283.31;;;23.67;51.00
79131;BME280;72396;45.194;9.142;2023-09-30T05:21:52;101285.28;;;23.65;50.97
79131;BME280;72396;45.194;9.142;2023-09-30T05:24:18;101297.50;;;23.69;51.41
79131;BME280;72396;45.194;9.142;2023-09-30T05:26:44;101290.41;;;23.68;51.25
79131;BME280;72396;45.194;9.142;2023-09-30T05:29:10;101305.69;;;23.67;50.95
79131;BME280;72396;45.194;9.142;2023-09-30T05:31:35;101300.44;;;23.66;50.91
79131;BME280;72396;45.194;9.142;2023-09-30T05:34:01;101307.66;;;23.65;51.34
79131;BME280;72396;45.194;9.142;2023-09-30T05:36:27;101314.75;;;23.66;51.07
79131;BME280;72396;45.194;9.142;2023-09-30T05:38:52;101308.75;;;23.63;51.07
79131;BME280;72396;45.194;9.142;2023-09-30T05:41:20;101308.53;;;23.66;51.11
79131;BME280;72396;45.194;9.142;2023-09-30T05:43:46;101305.69;;;23.67;51.27
79131;BME280;72396;45.194;9.142;2023-09-30T05:46:11;101315.72;;;23.65;51.28
79131;BME280;72396;45.194;9.142;2023-09-30T05:48:37;101321.00;;;23.67;50.82
79131;BME280;72396;45.194;9.142;2023-09-30T05:51:04;101313.91;;;23.66;50.90
79131;BME280;72396;45.194;9.142;2023-09-30T05:53:29;101313.66;;;23.69;50.78
79131;BME280;72396;45.194;9.142;2023-09-30T05:55:57;101303.34;;;23.63;50.83
79131;BME280;72396;45.194;9.142;2023-09-30T05:58:25;101303.25;;;23.64;51.10
79131;BME280;72396;45.194;9.142;2023-09-30T06:00:51;101294.06;;;23.55;50.72
79131;BME280;72396;45.194;9.142;2023-09-30T06:03:17;101292.34;;;23.32;50.86
79131;BME280;72396;45.194;9.142;2023-09-30T06:05:43;101290.44;;;23.09;51.38
79131;BME280;72396;45.194;9.142;2023-09-30T06:08:09;101278.25;;;22.69;52.00
79131;BME280;72396;45.194;9.142;2023-09-30T06:10:42;101286.09;;;22.48;52.62
79131;BME280;72396;45.194;9.142;2023-09-30T06:13:09;101283.31;;;22.37;53.42
79131;BME280;72396;45.194;9.142;2023-09-30T06:15:40;101278.63;;;22.27;54.02
79131;BME280;72396;45.194;9.142;2023-09-30T06:18:06;101270.91;;;22.23;53.79
79131;BME280;72396;45.194;9.142;2023-09-30T06:20:32;101261.38;;;22.19;54.19
79131;BME280;72396;45.194;9.142;2023-09-30T06:22:59;101257.97;;;22.04;54.65
79131;BME280;72396;45.194;9.142;2023-09-30T06:25:25;101277.34;;;21.96;54.85
79131;BME280;72396;45.194;9.142;2023-09-30T06:27:53;101293.47;;;21.83;55.53
79131;BME280;72396;45.194;9.142;2023-09-30T06:30:20;101308.41;;;21.74;55.91
79131;BME280;72396;45.194;9.142;2023-09-30T06:32:46;101309.06;;;21.65;56.44
79131;BME280;72396;45.194;9.142;2023-09-30T06:35:12;101317.22;;;21.63;56.67
79131;BME280;72396;45.194;9.142;2023-09-30T06:37:38;101320.22;;;21.58;56.92
79131;BME280;72396;45.194;9.142;2023-09-30T06:40:08;101321.63;;;21.51;57.17
79131;BME280;72396;45.194;9.142;2023-09-30T06:42:35;101313.56;;;21.51;57.33
79131;BME280;72396;45.194;9.142;2023-09-30T06:45:02;101324.09;;;21.54;57.27
79131;BME280;72396;45.194;9.142;2023-09-30T06:47:31;101312.81;;;21.49;57.05
79131;BME280;72396;45.194;9.142;2023-09-30T06:50:01;101325.59;;;21.46;57.29
79131;BME280;72396;45.194;9.142;2023-09-30T06:52:37;101313.16;;;21.44;57.22
79131;BME280;72396;45.194;9.142;2023-09-30T06:55:03;101318.59;;;21.43;57.20
79131;BME280;72396;45.194;9.142;2023-09-30T06:57:34;101322.16;;;21.43;57.52
79131;BME280;72396;45.194;9.142;2023-09-30T06:59:59;101328.16;;;21.47;57.30
79131;BME280;72396;45.194;9.142;2023-09-30T07:02:25;101331.19;;;21.42;57.44
79131;BME280;72396;45.194;9.142;2023-09-30T07:04:52;101328.38;;;21.44;57.65
79131;BME280;72396;45.194;9.142;2023-09-30T07:07:17;101317.41;;;21.34;57.86
79131;BME280;72396;45.194;9.142;2023-09-30T07:09:44;101338.25;;;21.43;57.78
79131;BME280;72396;45.194;9.142;2023-09-30T07:12:09;101339.09;;;21.44;58.08
79131;BME280;72396;45.194;9.142;2023-09-30T07:14:35;101338.66;;;21.37;58.21
79131;BME280;72396;45.194;9.142;2023-09-30T07:17:00;101342.75;;;21.43;58.22
79131;BME280;72396;45.194;9.142;2023-09-30T07:19:25;101341.78;;;21.44;58.51
79131;BME280;72396;45.194;9.142;2023-09-30T07:21:51;101343.50;;;21.45;58.45
79131;BME280;72396;45.194;9.142;2023-09-30T07:24:16;101349.31;;;21.52;58.42
79131;BME280;72396;45.194;9.142;2023-09-30T07:26:41;101358.69;;;21.72;58.35
79131;BME280;72396;45.194;9.142;2023-09-30T07:29:07;101357.59;;;21.75;58.36
79131;BME280;72396;45.194;9.142;2023-09-30T07:31:35;101350.81;;;21.82;58.52
79131;BME280;72396;45.194;9.142;2023-09-30T07:34:01;101359.19;;;21.77;58.43
79131;BME280;72396;45.194;9.142;2023-09-30T07:36:26;101359.72;;;21.56;58.92
79131;BME280;72396;45.194;9.142;2023-09-30T07:38:51;101358.31;;;21.64;58.75
79131;BME280;72396;45.194;9.142;2023-09-30T07:41:18;101359.19;;;21.64;59.05
79131;BME280;72396;45.194;9.142;2023-09-30T07:43:43;101364.34;;;21.67;59.33
79131;BME280;72396;45.194;9.142;2023-09-30T07:46:09;101367.34;;;21.89;58.57
79131;BME280;72396;45.194;9.142;2023-09-30T07:48:34;101372.81;;;22.00;58.43
79131;BME280;72396;45.194;9.142;2023-09-30T07:51:00;101370.75;;;22.04;58.43
79131;BME280;72396;45.194;9.142;2023-09-30T07:53:26;101375.38;;;22.02;58.33
79131;BME280;72396;45.194;9.142;2023-09-30T07:55:52;101381.09;;;22.10;58.59
79131;BME280;72396;45.194;9.142;2023-09-30T07:58:18;101384.28;;;22.15;58.33
79131;BME280;72396;45.194;9.142;2023-09-30T08:00:43;101375.81;;;22.08;58.66
79131;BME280;72396;45.194;9.142;2023-09-30T08:03:10;101384.94;;;22.19;58.85
79131;BME280;72396;45.194;9.142;2023-09-30T08:05:35;101374.59;;;22.25;58.68
79131;BME280;72396;45.194;9.142;2023-09-30T08:08:02;101381.75;;;22.38;58.54
79131;BME280;72396;45.194;9.142;2023-09-30T08:10:27;101383.06;;;22.32;58.37
79131;BME280;72396;45.194;9.142;2023-09-30T08:12:55;101379.19;;;22.36;58.75
79131;BME280;72396;45.194;9.142;2023-09-30T08:15:25;101376.38;;;22.38;58.32
79131;BME280;72396;45.194;9.142;2023-09-30T08:17:50;101375.53;;;22.37;58.12
79131;BME280;72396;45.194;9.142;2023-09-30T08:20:16;101366.41;;;22.27;58.89
79131;BME280;72396;45.194;9.142;2023-09-30T08:22:41;101380.72;;;22.27;58.99
79131;BME280;72396;45.194;9.142;2023-09-30T08:25:07;101379.34;;;22.22;59.29
79131;BME280;72396;45.194;9.142;2023-09-30T08:27:33;101383.97;;;22.20;59.91
79131;BME280;72396;45.194;9.142;2023-09-30T08:29:59;101380.06;;;22.24;59.62
79131;BME280;72396;45.194;9.142;2023-09-30T08:32:24;101379.41;;;22.33;59.14
79131;BME280;72396;45.194;9.142;2023-09-30T08:34:50;101379.47;;;22.45;59.06
79131;BME280;72396;45.194;9.142;2023-09-30T08:37:15;101381.00;;;22.49;59.22
79131;BME280;72396;45.194;9.142;2023-09-30T08:39:40;101378.72;;;22.42;59.18
79131;BME280;72396;45.194;9.142;2023-09-30T08:42:09;101383.72;;;22.49;59.52
79131;BME280;72396;45.194;9.142;2023-09-30T08:44:38;101385.38;;;22.63;58.92
79131;BME280;72396;45.194;9.142;2023-09-30T08:47:06;101393.09;;;22.67;58.39
79131;BME280;72396;45.194;9.142;2023-09-30T08:49:34;101389.19;;;22.71;58.53
79131;BME280;72396;45.194;9.142;2023-09-30T08:52:02;101393.69;;;22.71;58.20
79131;BME280;72396;45.194;9.142;2023-09-30T08:54:28;101398.88;;;22.74;58.21
79131;BME280;72396;45.194;9.142;2023-09-30T08:56:54;101390.41;;;22.67;57.99
79131;BME280;72396;45.194;9.142;2023-09-30T08:59:20;101390.28;;;22.69;58.49
79131;BME280;72396;45.194;9.142;2023-09-30T09:01:46;101394.09;;;22.78;58.43
79131;BME280;72396;45.194;9.142;2023-09-30T09:04:12;101396.06;;;22.76;58.92
79131;BME280;72396;45.194;9.142;2023-09-30T09:06:37;101393.31;;;22.64;58.80
79131;BME280;72396;45.194;9.142;2023-09-30T09:09:21;101401.66;;;22.73;58.91
79131;BME280;72396;45.194;9.142;2023-09-30T09:11:47;101399.31;;;22.68;58.91
79131;BME280;72396;45.194;9.142;2023-09-30T09:14:13;101398.88;;;22.74;58.43
79131;BME280;72396;45.194;9.142;2023-09-30T09:16:56;101395.16;;;22.88;57.55
79131;BME280;72396;45.194;9.142;2023-09-30T09:19:22;101397.09;;;22.86;58.64
79131;BME280;72396;45.194;9.142;2023-09-30T09:21:58;101396.22;;;22.85;58.76
79131;BME280;72396;45.194;9.142;2023-09-30T09:24:35;101385.06;;;22.79;58.82
79131;BME280;72396;45.194;9.142;2023-09-30T09:29:37;101385.88;;;22.92;58.28
79131;BME280;72396;45.194;9.142;2023-09-30T09:34:35;101366.22;;;23.03;57.21
79131;BME280;72396;45.194;9.142;2023-09-30T09:37:21;101371.50;;;23.05;57.32
79131;BME280;72396;45.194;9.142;2023-09-30T09:39:55;101367.59;;;23.09;57.18
79131;BME280;72396;45.194;9.142;2023-09-30T09:42:29;101364.44;;;23.15;56.65
79131;BME280;72396;45.194;9.142;2023-09-30T09:44:56;101364.22;;;23.18;57.22
79131;BME280;72396;45.194;9.142;2023-09-30T09:47:23;101360.53;;;23.19;56.73
79131;BME280;72396;45.194;9.142;2023-09-30T09:49:50;101366.66;;;23.21;56.63
79131;BME280;72396;45.194;9.142;2023-09-30T09:52:17;101355.59;;;23.13;56.97
79131;BME280;72396;45.194;9.142;2023-09-30T09:54:44;101363.22;;;23.19;57.07
79131;BME280;72396;45.194;9.142;2023-09-30T09:57:11;101362.50;;;23.17;57.84
79131;BME280;72396;45.194;9.142;2023-09-30T09:59:38;101366.75;;;23.20;57.68
79131;BME280;72396;45.194;9.142;2023-09-30T10:07:55;101369.34;;;23.21;58.15
79131;BME280;72396;45.194;9.142;2023-09-30T10:10:23;101363.72;;;23.24;57.99
79131;BME280;72396;45.194;9.142;2023-09-30T10:12:48;101373.44;;;23.27;57.69
79131;BME280;72396;45.194;9.142;2023-09-30T10:20:31;101354.47;;;23.28;56.84
79131;BME280;72396;45.194;9.142;2023-09-30T10:23:21;101365.75;;;23.34;58.09
79131;BME280;72396;45.194;9.142;2023-09-30T10:25:51;101375.00;;;23.30;56.86
79131;BME280;72396;45.194;9.142;2023-09-30T10:31:09;101366.72;;;23.33;57.02
79131;BME280;72396;45.194;9.142;2023-09-30T10:39:00;101356.81;;;23.33;55.92
79131;BME280;72396;45.194;9.142;2023-09-30T10:41:52;101347.41;;;23.39;56.94
79131;BME280;72396;45.194;9.142;2023-09-30T10:46:56;101334.81;;;23.39;56.16
79131;BME280;72396;45.194;9.142;2023-09-30T10:51:49;101317.06;;;23.37;56.38
79131;BME280;72396;45.194;9.142;2023-09-30T10:54:14;101308.50;;;23.43;55.34
79131;BME280;72396;45.194;9.142;2023-09-30T10:56:40;101309.22;;;23.45;55.96
79131;BME280;72396;45.194;9.142;2023-09-30T10:59:05;101292.59;;;23.40;55.35
79131;BME280;72396;45.194;9.142;2023-09-30T11:01:34;101296.38;;;23.49;54.97
79131;BME280;72396;45.194;9.142;2023-09-30T11:04:02;101297.38;;;23.48;54.59
79131;BME280;72396;45.194;9.142;2023-09-30T11:06:30;101305.44;;;23.48;54.35
79131;BME280;72396;45.194;9.142;2023-09-30T11:08:58;101291.25;;;23.46;54.22
79131;BME280;72396;45.194;9.142;2023-09-30T11:11:41;101299.22;;;23.47;53.98
79131;BME280;72396;45.194;9.142;2023-09-30T11:14:17;101294.44;;;23.51;54.11
79131;BME280;72396;45.194;9.142;2023-09-30T11:16:43;101295.06;;;23.54;54.15
79131;BME280;72396;45.194;9.142;2023-09-30T11:19:09;101284.41;;;23.53;53.91
79131;BME280;72396;45.194;9.142;2023-09-30T11:21:35;101286.88;;;23.56;53.73
79131;BME280;72396;45.194;9.142;2023-09-30T11:24:01;101287.72;;;23.56;53.21
79131;BME280;72396;45.194;9.142;2023-09-30T11:26:30;101282.31;;;23.56;53.84
79131;BME280;72396;45.194;9.142;2023-09-30T11:29:08;101290.03;;;23.61;53.83
79131;BME280;72396;45.194;9.142;2023-09-30T11:31:37;101285.50;;;23.62;53.72
79131;BME280;72396;45.194;9.142;2023-09-30T11:34:03;101276.69;;;23.60;53.31
79131;BME280;72396;45.194;9.142;2023-09-30T11:36:30;101291.25;;;23.68;53.50
79131;BME280;72396;45.194;9.142;2023-09-30T11:38:58;101285.28;;;23.65;53.82
79131;BME280;72396;45.194;9.142;2023-09-30T11:41:32;101286.47;;;23.72;52.74
79131;BME280;72396;45.194;9.142;2023-09-30T11:44:08;101284.66;;;23.73;53.19
79131;BME280;72396;45.194;9.142;2023-09-30T11:46:48;101292.75;;;23.73;53.51
79131;BME280;72396;45.194;9.142;2023-09-30T11:49:41;101291.88;;;23.72;53.00
79131;BME280;72396;45.194;9.142;2023-09-30T11:52:11;101295.53;;;23.71;52.69
79131;BME280;72396;45.194;9.142;2023-09-30T11:54:39;101290.03;;;23.73;52.61
79131;BME280;72396;45.194;9.142;2023-09-30T11:57:14;101286.47;;;23.72;51.83
79131;BME280;72396;45.194;9.142;2023-09-30T11:59:40;101292.47;;;23.76;52.46
79131;BME280;72396;45.194;9.142;2023-09-30T12:02:07;101298.47;;;23.79;51.57
79131;BME280;72396;45.194;9.142;2023-09-30T12:04:34;101291.13;;;23.81;51.63
79131;BME280;72396;45.194;9.142;2023-09-30T12:07:00;101283.06;;;23.81;51.73
79131;BME280;72396;45.194;9.142;2023-09-30T12:09:25;101268.88;;;23.68;51.37
79131;BME280;72396;45.194;9.142;2023-09-30T12:11:53;101279.28;;;23.73;51.14
79131;BME280;72396;45.194;9.142;2023-09-30T12:14:20;101288.44;;;23.81;51.38
79131;BME280;72396;45.194;9.142;2023-09-30T12:16:46;101287.47;;;23.82;51.58
79131;BME280;72396;45.194;9.142;2023-09-30T12:19:15;101287.22;;;23.86;51.51
79131;BME280;72396;45.194;9.142;2023-09-30T12:21:42;101279.84;;;23.88;51.44
79131;BME280;72396;45.194;9.142;2023-09-30T12:24:08;101286.13;;;23.88;51.50
79131;BME280;72396;45.194;9.142;2023-09-30T12:26:35;101270.06;;;23.87;51.01
79131;BME280;72396;45.194;9.142;2023-09-30T12:29:01;101272.50;;;23.90;51.33
79131;BME280;72396;45.194;9.142;2023-09-30T12:31:26;101274.47;;;23.88;51.01
79131;BME280;72396;45.194;9.142;2023-09-30T12:33:51;101276.19;;;23.89;51.31
79131;BME280;72396;45.194;9.142;2023-09-30T12:36:19;101277.88;;;23.90;50.44
79131;BME280;72396;45.194;9.142;2023-09-30T12:38:45;101274.22;;;23.91;50.93
79131;BME280;72396;45.194;9.142;2023-09-30T12:41:10;101267.84;;;23.92;50.54
79131;BME280;72396;45.194;9.142;2023-09-30T12:43:37;101263.69;;;23.88;50.78
79131;BME280;72396;45.194;9.142;2023-09-30T12:46:02;101260.50;;;23.94;49.78
79131;BME280;72396;45.194;9.142;2023-09-30T12:48:29;101252.41;;;23.94;49.42
79131;BME280;72396;45.194;9.142;2023-09-30T12:50:55;101251.44;;;23.95;49.38
79131;BME280;72396;45.194;9.142;2023-09-30T12:53:20;101248.72;;;23.95;49.09
79131;BME280;72396;45.194;9.142;2023-09-30T12:55:45;101241.63;;;23.94;49.57
79131;BME280;72396;45.194;9.142;2023-09-30T12:58:11;101234.28;;;23.96;49.63
79131;BME280;72396;45.194;9.142;2023-09-30T13:00:37;101236.03;;;23.97;49.34
79131;BME280;72396;45.194;9.142;2023-09-30T13:03:03;101226.97;;;23.98;49.45
79131;BME280;72396;45.194;9.142;2023-09-30T13:05:29;101206.88;;;23.91;49.32
79131;BME280;72396;45.194;9.142;2023-09-30T13:07:57;101214.00;;;24.03;49.32
79131;BME280;72396;45.194;9.142;2023-09-30T13:10:23;101206.97;;;24.01;49.52
79131;BME280;72396;45.194;9.142;2023-09-30T13:12:49;101214.81;;;24.04;49.30
79131;BME280;72396;45.194;9.142;2023-09-30T13:15:19;101208.50;;;24.05;49.45
79131;BME280;72396;45.194;9.142;2023-09-30T13:17:45;101209.22;;;24.07;49.30